Time;durP1;ratioP1;P1;durP2;ratioP2;P2;SDS_P1;SDS_P2;PMS_P1;PMS_P2;Temp;Humidity;BMP_temperature;BMP_pressure;BME280_temperature;BME280_humidity;BME280_pressure;Samples;Min_cycle;Max_cycle;Signal;HPM_P1;HPM_P2
2021/09/24 00:01:39;;;;;;;1.82;1.72;;;;;;;19.83;67.59;100668.20;;;;-51
2021/09/24 00:04:39;;;;;;;2.06;1.86;;;;;;;19.82;67.62;100671.88;;;;-51
2021/09/24 00:07:39;;;;;;;2.10;1.90;;;;;;;19.82;67.60;100674.87;;;;-52
2021/09/24 00:10:39;;;;;;;2.50;1.98;;;;;;;19.82;67.59;100677.81;;;;-51
2021/09/24 00:13:39;;;;;;;2.05;1.85;;;;;;;19.80;67.70;100676.08;;;;-51
2021/09/24 00:16:39;;;;;;;2.57;1.98;;;;;;;19.79;67.71;100677.11;;;;-51
2021/09/24 00:19:39;;;;;;;1.85;1.74;;;;;;;19.80;67.61;100674.37;;;;-51
2021/09/24 00:22:39;;;;;;;2.05;1.85;;;;;;;19.80;67.67;100672.17;;;;-51
2021/09/24 00:25:39;;;;;;;2.13;1.90;;;;;;;19.79;67.68;100673.86;;;;-51
2021/09/24 00:28:39;;;;;;;1.88;1.77;;;;;;;19.79;67.71;100679.15;;;;-52
2021/09/24 00:31:39;;;;;;;2.15;1.97;;;;;;;19.79;67.69;100677.77;;;;-51
2021/09/24 00:34:39;;;;;;;2.31;1.85;;;;;;;19.78;67.70;100675.66;;;;-51
2021/09/24 00:37:39;;;;;;;2.46;1.99;;;;;;;19.78;67.64;100668.34;;;;-51
2021/09/24 00:40:39;;;;;;;2.08;1.86;;;;;;;19.78;67.66;100671.19;;;;-51
2021/09/24 00:43:39;;;;;;;2.28;1.99;;;;;;;19.77;67.71;100674.58;;;;-51
2021/09/24 00:46:39;;;;;;;2.29;1.91;;;;;;;19.77;67.67;100669.94;;;;-51
2021/09/24 00:49:39;;;;;;;2.17;1.97;;;;;;;19.77;67.69;100667.83;;;;-51
2021/09/24 00:52:39;;;;;;;1.97;1.83;;;;;;;19.76;67.71;100669.38;;;;-52
2021/09/24 00:55:39;;;;;;;2.05;1.90;;;;;;;19.76;67.74;100669.87;;;;-51
2021/09/24 00:58:39;;;;;;;1.85;1.75;;;;;;;19.75;67.71;100669.43;;;;-51
2021/09/24 01:01:39;;;;;;;1.95;1.85;;;;;;;19.75;67.74;100668.05;;;;-52
2021/09/24 01:04:39;;;;;;;1.89;1.79;;;;;;;19.76;67.69;100672.22;;;;-52
2021/09/24 01:07:39;;;;;;;2.09;1.89;;;;;;;19.75;67.71;100674.06;;;;-52
2021/09/24 01:10:39;;;;;;;2.10;1.79;;;;;;;19.75;67.72;100674.07;;;;-51
2021/09/24 01:13:39;;;;;;;2.00;1.90;;;;;;;19.75;67.68;100671.06;;;;-51
2021/09/24 01:16:39;;;;;;;2.33;1.85;;;;;;;19.75;67.68;100675.78;;;;-51
2021/09/24 01:19:39;;;;;;;1.93;1.83;;;;;;;19.74;67.73;100672.69;;;;-51
2021/09/24 01:22:39;;;;;;;2.40;1.95;;;;;;;19.73;67.77;100670.64;;;;-51
2021/09/24 01:25:39;;;;;;;2.19;1.98;;;;;;;19.72;67.79;100667.31;;;;-51
2021/09/24 01:28:39;;;;;;;2.02;1.90;;;;;;;19.72;67.77;100666.66;;;;-51
2021/09/24 01:31:39;;;;;;;2.27;1.99;;;;;;;19.72;67.76;100662.91;;;;-51
2021/09/24 01:34:39;;;;;;;2.00;1.89;;;;;;;19.73;67.75;100664.94;;;;-51
2021/09/24 01:37:39;;;;;;;2.31;2.01;;;;;;;19.72;67.77;100665.03;;;;-51
2021/09/24 01:40:39;;;;;;;2.18;1.98;;;;;;;19.72;67.76;100665.27;;;;-51
2021/09/24 01:43:39;;;;;;;2.01;1.80;;;;;;;19.72;67.78;100664.22;;;;-51
2021/09/24 01:46:39;;;;;;;1.99;1.89;;;;;;;19.70;67.79;100659.48;;;;-51
2021/09/24 01:49:39;;;;;;;2.32;2.12;;;;;;;19.69;67.83;100656.17;;;;-51
2021/09/24 01:52:39;;;;;;;2.18;1.98;;;;;;;19.70;67.76;100653.63;;;;-51
2021/09/24 01:55:39;;;;;;;2.11;1.91;;;;;;;19.69;67.83;100654.71;;;;-51
2021/09/24 01:58:39;;;;;;;2.03;1.81;;;;;;;19.69;67.80;100652.70;;;;-51
2021/09/24 02:01:39;;;;;;;2.03;1.93;;;;;;;19.69;67.78;100650.73;;;;-51
2021/09/24 02:04:39;;;;;;;2.17;1.97;;;;;;;19.70;67.80;100648.56;;;;-57
2021/09/24 02:07:39;;;;;;;1.91;1.81;;;;;;;19.70;67.77;100647.02;;;;-56
2021/09/24 02:10:39;;;;;;;2.31;1.89;;;;;;;19.70;67.78;100645.30;;;;-57
2021/09/24 02:13:39;;;;;;;2.09;1.90;;;;;;;19.69;67.79;100640.81;;;;-55
2021/09/24 02:16:39;;;;;;;2.21;2.01;;;;;;;19.69;67.78;100644.22;;;;-56
2021/09/24 02:19:39;;;;;;;2.25;2.05;;;;;;;19.69;67.76;100644.63;;;;-56
2021/09/24 02:22:39;;;;;;;2.20;2.00;;;;;;;19.69;67.80;100648.86;;;;-56
2021/09/24 02:25:39;;;;;;;2.07;1.91;;;;;;;19.68;67.79;100651.71;;;;-56
2021/09/24 02:28:40;;;;;;;2.23;2.03;;;;;;;19.67;67.84;100656.59;;;;-56
2021/09/24 02:31:39;;;;;;;2.02;1.92;;;;;;;19.68;67.77;100653.98;;;;-55
2021/09/24 02:34:39;;;;;;;2.11;1.90;;;;;;;19.67;67.80;100654.97;;;;-56
2021/09/24 02:37:39;;;;;;;1.74;1.64;;;;;;;19.68;67.77;100663.58;;;;-56
2021/09/24 02:40:39;;;;;;;2.05;1.93;;;;;;;19.67;67.82;100664.53;;;;-56
2021/09/24 02:43:39;;;;;;;2.28;2.08;;;;;;;19.67;67.82;100660.63;;;;-56
2021/09/24 02:46:39;;;;;;;2.17;1.83;;;;;;;19.67;67.82;100663.02;;;;-56
2021/09/24 02:49:41;;;;;;;2.25;2.05;;;;;;;19.67;67.84;100668.11;;;;-56
2021/09/24 02:52:39;;;;;;;2.29;2.09;;;;;;;19.67;67.84;100668.03;;;;-56
2021/09/24 02:55:39;;;;;;;1.99;1.89;;;;;;;19.66;67.82;100658.28;;;;-56
2021/09/24 02:58:39;;;;;;;1.91;1.80;;;;;;;19.66;67.84;100658.44;;;;-56
2021/09/24 03:01:39;;;;;;;2.04;1.90;;;;;;;19.65;67.87;100655.24;;;;-57
2021/09/24 03:04:39;;;;;;;2.09;1.89;;;;;;;19.66;67.84;100650.15;;;;-57
2021/09/24 03:07:39;;;;;;;2.07;1.87;;;;;;;19.65;67.84;100648.83;;;;-52
2021/09/24 03:10:39;;;;;;;2.12;1.85;;;;;;;19.65;67.84;100644.95;;;;-52
2021/09/24 03:13:39;;;;;;;2.14;1.90;;;;;;;19.64;67.90;100643.95;;;;-52
2021/09/24 03:16:41;;;;;;;2.38;1.87;;;;;;;19.65;67.84;100644.87;;;;-52
2021/09/24 03:19:39;;;;;;;2.10;1.90;;;;;;;19.63;67.87;100639.73;;;;-52
2021/09/24 03:22:39;;;;;;;2.10;1.90;;;;;;;19.63;67.88;100636.85;;;;-52
2021/09/24 03:25:39;;;;;;;2.10;1.90;;;;;;;19.63;67.90;100636.28;;;;-52
2021/09/24 03:28:39;;;;;;;2.11;1.90;;;;;;;19.63;67.88;100640.78;;;;-52
2021/09/24 03:31:39;;;;;;;2.35;2.12;;;;;;;19.63;67.88;100643.36;;;;-52
2021/09/24 03:34:39;;;;;;;2.09;1.91;;;;;;;19.64;67.81;100651.52;;;;-52
2021/09/24 03:37:39;;;;;;;1.99;1.89;;;;;;;19.64;67.84;100651.11;;;;-52
2021/09/24 03:40:39;;;;;;;2.20;2.00;;;;;;;19.63;67.87;100648.48;;;;-52
2021/09/24 03:43:39;;;;;;;2.14;1.94;;;;;;;19.63;67.86;100649.48;;;;-52
2021/09/24 03:46:39;;;;;;;2.10;1.90;;;;;;;19.61;67.91;100648.41;;;;-52
2021/09/24 03:49:39;;;;;;;2.00;1.90;;;;;;;19.62;67.89;100646.86;;;;-52
2021/09/24 03:52:39;;;;;;;2.55;2.10;;;;;;;19.61;67.91;100645.31;;;;-52
2021/09/24 03:55:39;;;;;;;2.13;1.98;;;;;;;19.62;67.89;100646.53;;;;-52
2021/09/24 03:58:39;;;;;;;2.10;1.90;;;;;;;19.62;67.90;100647.19;;;;-56
2021/09/24 04:01:39;;;;;;;2.10;1.97;;;;;;;19.61;67.88;100646.94;;;;-55
2021/09/24 04:04:39;;;;;;;2.00;1.90;;;;;;;19.61;67.86;100647.27;;;;-57
2021/09/24 04:07:39;;;;;;;2.07;1.90;;;;;;;19.62;67.89;100650.77;;;;-56
2021/09/24 04:10:39;;;;;;;2.21;2.01;;;;;;;19.62;67.86;100650.92;;;;-56
2021/09/24 04:13:39;;;;;;;2.22;2.02;;;;;;;19.61;67.86;100654.27;;;;-55
2021/09/24 04:16:39;;;;;;;2.29;2.09;;;;;;;19.62;67.81;100655.80;;;;-57
2021/09/24 04:19:39;;;;;;;2.45;2.00;;;;;;;19.61;67.81;100655.16;;;;-56
2021/09/24 04:22:39;;;;;;;2.71;1.98;;;;;;;19.61;67.87;100651.06;;;;-56
2021/09/24 04:25:39;;;;;;;2.09;1.93;;;;;;;19.61;67.87;100653.50;;;;-56
2021/09/24 04:28:39;;;;;;;2.13;1.97;;;;;;;19.60;67.85;100650.34;;;;-56
2021/09/24 04:31:39;;;;;;;2.09;1.93;;;;;;;19.60;67.87;100655.13;;;;-57
2021/09/24 04:34:39;;;;;;;2.03;1.92;;;;;;;19.61;67.87;100654.72;;;;-56
2021/09/24 04:37:39;;;;;;;2.27;2.07;;;;;;;19.60;67.87;100658.47;;;;-55
2021/09/24 04:40:39;;;;;;;2.20;2.01;;;;;;;19.60;67.90;100659.44;;;;-51
2021/09/24 04:43:39;;;;;;;1.95;1.85;;;;;;;19.60;67.88;100660.66;;;;-51
2021/09/24 04:46:39;;;;;;;2.09;1.93;;;;;;;19.59;67.86;100655.19;;;;-51
2021/09/24 04:49:39;;;;;;;2.18;1.98;;;;;;;19.59;67.90;100657.63;;;;-52
2021/09/24 04:52:39;;;;;;;2.20;2.00;;;;;;;19.59;67.88;100660.34;;;;-51
2021/09/24 04:55:39;;;;;;;2.14;1.96;;;;;;;19.59;67.88;100655.62;;;;-51
2021/09/24 04:58:39;;;;;;;2.08;1.89;;;;;;;19.59;67.88;100657.82;;;;-51
2021/09/24 05:01:39;;;;;;;2.19;1.99;;;;;;;19.60;67.84;100658.30;;;;-51
2021/09/24 05:04:39;;;;;;;2.05;1.88;;;;;;;19.59;67.85;100661.48;;;;-51
2021/09/24 05:07:39;;;;;;;2.09;1.89;;;;;;;19.58;67.86;100662.34;;;;-52
2021/09/24 05:10:39;;;;;;;2.11;1.94;;;;;;;19.59;67.84;100657.14;;;;-53
2021/09/24 05:13:39;;;;;;;2.17;2.06;;;;;;;19.59;67.79;100654.37;;;;-52
2021/09/24 05:16:39;;;;;;;2.05;1.89;;;;;;;19.58;67.84;100657.71;;;;-56
2021/09/24 05:19:39;;;;;;;2.15;1.95;;;;;;;19.58;67.85;100658.52;;;;-52
2021/09/24 05:22:39;;;;;;;2.17;1.97;;;;;;;19.58;67.83;100662.75;;;;-51
2021/09/24 05:25:39;;;;;;;2.02;1.92;;;;;;;19.58;67.82;100663.23;;;;-56
2021/09/24 05:28:39;;;;;;;2.18;1.98;;;;;;;19.57;67.84;100657.72;;;;-56
2021/09/24 05:31:39;;;;;;;2.31;2.09;;;;;;;19.57;67.83;100662.27;;;;-55
2021/09/24 05:34:39;;;;;;;1.94;1.84;;;;;;;19.57;67.84;100662.59;;;;-56
2021/09/24 05:37:39;;;;;;;2.17;2.00;;;;;;;19.58;67.81;100664.14;;;;-56
2021/09/24 05:40:39;;;;;;;2.01;1.91;;;;;;;19.57;67.82;100657.23;;;;-56
2021/09/24 05:43:39;;;;;;;2.20;2.00;;;;;;;19.58;67.83;100656.66;;;;-51
2021/09/24 05:46:40;;;;;;;2.12;2.01;;;;;;;19.57;67.85;100656.74;;;;-51
2021/09/24 05:49:39;;;;;;;2.10;1.99;;;;;;;19.57;67.87;100659.56;;;;-56
2021/09/24 05:52:39;;;;;;;2.24;2.04;;;;;;;19.55;67.87;100661.11;;;;-52
2021/09/24 05:55:40;;;;;;;2.26;2.07;;;;;;;19.54;67.90;100659.30;;;;-52
2021/09/24 05:58:39;;;;;;;2.03;1.93;;;;;;;19.55;67.90;100660.68;;;;-56
2021/09/24 06:01:39;;;;;;;2.15;2.00;;;;;;;19.55;67.89;100664.69;;;;-56
2021/09/24 06:04:39;;;;;;;2.65;1.91;;;;;;;19.56;67.87;100669.31;;;;-51
2021/09/24 06:07:39;;;;;;;2.29;2.09;;;;;;;19.55;67.88;100665.59;;;;-51
2021/09/24 06:10:39;;;;;;;2.07;1.97;;;;;;;19.55;67.88;100670.87;;;;-51
2021/09/24 06:13:39;;;;;;;2.25;2.05;;;;;;;19.55;67.81;100667.94;;;;-51
2021/09/24 06:16:39;;;;;;;2.16;2.03;;;;;;;19.55;67.88;100674.77;;;;-56
2021/09/24 06:19:39;;;;;;;2.11;2.01;;;;;;;19.55;67.89;100674.45;;;;-56
2021/09/24 06:22:39;;;;;;;2.29;2.09;;;;;;;19.55;67.90;100674.20;;;;-51
2021/09/24 06:25:39;;;;;;;2.17;1.97;;;;;;;19.53;67.92;100674.27;;;;-51
2021/09/24 06:28:39;;;;;;;3.13;2.16;;;;;;;19.55;67.90;100675.47;;;;-51
2021/09/24 06:31:39;;;;;;;2.25;2.05;;;;;;;19.55;67.90;100677.70;;;;-51
2021/09/24 06:34:39;;;;;;;2.25;2.05;;;;;;;19.55;67.88;100674.98;;;;-51
2021/09/24 06:37:39;;;;;;;2.34;2.14;;;;;;;19.55;67.89;100680.19;;;;-51
2021/09/24 06:40:39;;;;;;;2.11;1.97;;;;;;;19.54;67.90;100683.77;;;;-51
2021/09/24 06:43:39;;;;;;;2.23;2.03;;;;;;;19.54;67.90;100684.34;;;;-56
2021/09/24 06:46:39;;;;;;;2.19;2.00;;;;;;;19.53;67.95;100684.18;;;;-56
2021/09/24 06:49:39;;;;;;;2.29;2.09;;;;;;;19.53;67.95;100687.44;;;;-51
2021/09/24 06:52:39;;;;;;;2.30;2.10;;;;;;;19.53;67.96;100690.20;;;;-53
2021/09/24 06:55:39;;;;;;;2.12;1.92;;;;;;;19.52;67.98;100692.77;;;;-52
2021/09/24 06:58:39;;;;;;;2.29;2.09;;;;;;;19.52;67.95;100693.42;;;;-52
2021/09/24 07:01:41;;;;;;;2.32;2.12;;;;;;;19.52;67.99;100693.83;;;;-56
2021/09/24 07:04:39;;;;;;;2.21;2.01;;;;;;;19.51;68.00;100688.80;;;;-52
2021/09/24 07:07:39;;;;;;;2.00;1.90;;;;;;;19.52;68.01;100691.23;;;;-52
2021/09/24 07:10:39;;;;;;;2.11;1.94;;;;;;;19.52;68.00;100693.50;;;;-52
2021/09/24 07:13:39;;;;;;;2.21;2.04;;;;;;;19.52;67.99;100696.67;;;;-51
2021/09/24 07:16:39;;;;;;;2.51;2.01;;;;;;;19.51;68.01;100698.36;;;;-51
2021/09/24 07:19:39;;;;;;;2.09;1.99;;;;;;;19.52;68.00;100701.47;;;;-51
2021/09/24 07:22:39;;;;;;;2.20;2.09;;;;;;;19.51;68.04;100706.52;;;;-51
2021/09/24 07:25:39;;;;;;;2.03;1.90;;;;;;;19.51;68.04;100704.64;;;;-51
2021/09/24 07:28:39;;;;;;;2.19;1.99;;;;;;;19.51;68.00;100698.47;;;;-53
2021/09/24 07:31:39;;;;;;;2.09;1.93;;;;;;;19.50;68.01;100702.02;;;;-51
2021/09/24 07:34:42;;;;;;;2.18;2.00;;;;;;;19.52;68.01;100703.91;;;;-51
2021/09/24 07:37:39;;;;;;;2.10;1.90;;;;;;;19.52;67.99;100699.69;;;;-51
2021/09/24 07:40:39;;;;;;;2.23;2.03;;;;;;;19.49;68.08;100704.22;;;;-51
2021/09/24 07:43:39;;;;;;;2.26;2.07;;;;;;;19.48;68.10;100699.15;;;;-51
2021/09/24 07:46:39;;;;;;;1.99;1.89;;;;;;;19.50;68.08;100705.27;;;;-57
2021/09/24 07:49:40;;;;;;;2.17;2.00;;;;;;;19.50;68.06;100710.55;;;;-52
2021/09/24 07:52:39;;;;;;;2.15;2.04;;;;;;;19.50;68.08;100713.23;;;;-51
2021/09/24 07:55:39;;;;;;;2.17;2.06;;;;;;;19.51;68.06;100717.65;;;;-51
2021/09/24 07:58:39;;;;;;;2.03;1.93;;;;;;;19.50;68.06;100715.92;;;;-51
2021/09/24 08:01:39;;;;;;;2.22;2.02;;;;;;;19.49;68.10;100713.65;;;;-51
2021/09/24 08:04:39;;;;;;;2.20;2.01;;;;;;;19.49;68.07;100709.42;;;;-56
2021/09/24 08:07:39;;;;;;;2.18;2.08;;;;;;;19.50;68.03;100702.67;;;;-51
2021/09/24 08:10:39;;;;;;;2.05;1.95;;;;;;;19.50;68.07;100708.03;;;;-53
2021/09/24 08:13:39;;;;;;;2.26;2.07;;;;;;;19.49;68.09;100708.20;;;;-56
2021/09/24 08:16:39;;;;;;;2.12;1.93;;;;;;;19.51;68.06;100710.88;;;;-51
2021/09/24 08:19:40;;;;;;;1.97;1.87;;;;;;;19.51;68.04;100712.20;;;;-51
2021/09/24 08:22:40;;;;;;;2.21;2.01;;;;;;;19.50;68.08;100714.21;;;;-52
2021/09/24 08:25:39;;;;;;;2.23;2.03;;;;;;;19.49;68.10;100721.61;;;;-53
2021/09/24 08:28:39;;;;;;;2.01;1.91;;;;;;;19.49;68.14;100723.81;;;;-52
2021/09/24 08:31:39;;;;;;;2.20;2.02;;;;;;;19.49;68.14;100728.03;;;;-52
2021/09/24 08:34:39;;;;;;;2.08;1.95;;;;;;;19.49;68.17;100719.91;;;;-50
2021/09/24 08:37:39;;;;;;;2.06;1.96;;;;;;;19.49;68.09;100718.60;;;;-51
2021/09/24 08:40:39;;;;;;;2.02;1.92;;;;;;;19.49;68.14;100715.84;;;;-51
2021/09/24 08:43:39;;;;;;;2.17;2.03;;;;;;;19.49;68.12;100712.59;;;;-53
2021/09/24 08:46:39;;;;;;;2.00;1.90;;;;;;;19.50;68.08;100714.86;;;;-57
2021/09/24 08:49:39;;;;;;;2.22;2.02;;;;;;;19.50;68.09;100711.04;;;;-51
2021/09/24 08:52:39;;;;;;;5.00;2.19;;;;;;;19.51;68.21;100703.27;;;;-51
2021/09/24 08:55:39;;;;;;;4.40;3.03;;;;;;;19.54;68.06;100700.84;;;;-51
2021/09/24 08:58:39;;;;;;;4.05;3.39;;;;;;;19.54;68.09;100703.28;;;;-53
2021/09/24 09:01:39;;;;;;;4.93;3.59;;;;;;;19.54;68.21;100705.64;;;;-53
2021/09/24 09:04:39;;;;;;;5.87;3.86;;;;;;;19.53;68.37;100709.95;;;;-54
2021/09/24 09:07:39;;;;;;;6.15;3.95;;;;;;;19.54;68.44;100709.38;;;;-57
2021/09/24 09:10:39;;;;;;;7.01;3.74;;;;;;;19.54;68.42;100710.67;;;;-52
2021/09/24 09:13:39;;;;;;;7.31;3.82;;;;;;;19.55;68.59;100703.11;;;;-57
2021/09/24 09:16:39;;;;;;;7.37;3.75;;;;;;;19.56;68.50;100701.42;;;;-57
2021/09/24 09:19:39;;;;;;;6.68;3.35;;;;;;;19.58;68.40;100703.08;;;;-58
2021/09/24 09:22:39;;;;;;;6.11;3.75;;;;;;;19.60;68.38;100700.90;;;;-58
2021/09/24 09:25:39;;;;;;;5.48;3.56;;;;;;;19.61;68.49;100696.51;;;;-57
2021/09/24 09:28:39;;;;;;;4.93;3.63;;;;;;;19.62;68.38;100697.10;;;;-58
2021/09/24 09:31:39;;;;;;;3.39;3.09;;;;;;;19.64;68.46;100696.14;;;;-54
2021/09/24 09:34:39;;;;;;;6.15;3.59;;;;;;;19.65;68.45;100692.43;;;;-49
2021/09/24 09:37:39;;;;;;;4.73;3.49;;;;;;;19.66;68.46;100698.12;;;;-57
2021/09/24 09:40:39;;;;;;;5.03;3.41;;;;;;;19.66;68.44;100692.67;;;;-61
2021/09/24 09:43:39;;;;;;;5.76;3.41;;;;;;;19.68;68.40;100692.28;;;;-52
2021/09/24 09:46:39;;;;;;;6.17;3.48;;;;;;;19.68;68.44;100689.11;;;;-58
2021/09/24 09:49:39;;;;;;;5.77;3.25;;;;;;;19.68;68.35;100691.64;;;;-53
2021/09/24 09:52:39;;;;;;;6.16;3.45;;;;;;;19.68;68.46;100692.94;;;;-61
2021/09/24 09:55:39;;;;;;;14.51;4.05;;;;;;;19.69;68.48;100697.72;;;;-62
2021/09/24 09:58:39;;;;;;;10.07;3.47;;;;;;;19.71;68.46;100695.42;;;;-53
2021/09/24 10:01:39;;;;;;;5.07;3.75;;;;;;;19.72;68.45;100689.42;;;;-51
2021/09/24 10:04:39;;;;;;;6.68;3.23;;;;;;;19.73;68.43;100684.30;;;;-51
2021/09/24 10:07:39;;;;;;;5.91;3.20;;;;;;;19.75;68.50;100679.27;;;;-51
2021/09/24 10:10:39;;;;;;;4.68;3.25;;;;;;;19.75;68.44;100678.30;;;;-52
2021/09/24 10:13:39;;;;;;;5.88;3.31;;;;;;;19.76;68.42;100678.24;;;;-54
2021/09/24 10:16:39;;;;;;;5.49;3.20;;;;;;;19.77;68.40;100679.37;;;;-56
2021/09/24 10:19:39;;;;;;;4.75;3.35;;;;;;;19.78;68.52;100681.27;;;;-57
2021/09/24 10:22:39;;;;;;;6.99;3.39;;;;;;;19.78;68.46;100676.95;;;;-54
2021/09/24 10:25:39;;;;;;;7.25;3.34;;;;;;;19.79;68.46;100678.09;;;;-58
2021/09/24 10:28:39;;;;;;;4.10;3.18;;;;;;;19.80;68.58;100678.52;;;;-51
2021/09/24 10:31:39;;;;;;;5.65;3.23;;;;;;;19.81;68.54;100672.83;;;;-52
2021/09/24 10:34:39;;;;;;;5.41;2.99;;;;;;;19.82;68.50;100676.26;;;;-56
2021/09/24 10:37:39;;;;;;;3.77;3.03;;;;;;;19.81;68.53;100673.55;;;;-57
2021/09/24 10:40:39;;;;;;;6.60;2.96;;;;;;;19.80;68.40;100670.63;;;;-57
2021/09/24 10:43:39;;;;;;;5.43;2.87;;;;;;;19.81;68.38;100672.91;;;;-53
2021/09/24 10:46:41;;;;;;;6.16;3.03;;;;;;;19.79;68.39;100663.28;;;;-58
2021/09/24 10:49:39;;;;;;;5.71;3.33;;;;;;;19.80;68.31;100668.11;;;;-52
2021/09/24 10:52:39;;;;;;;3.88;3.05;;;;;;;19.79;68.31;100661.41;;;;-56
2021/09/24 10:55:39;;;;;;;5.69;2.96;;;;;;;19.79;68.34;100654.50;;;;-57
2021/09/24 10:58:39;;;;;;;3.35;2.90;;;;;;;19.78;68.31;100651.34;;;;-57
2021/09/24 11:01:40;;;;;;;3.15;2.70;;;;;;;19.78;68.30;100644.43;;;;-57
2021/09/24 11:04:39;;;;;;;5.39;3.05;;;;;;;19.77;68.30;100642.45;;;;-58
2021/09/24 11:07:39;;;;;;;3.96;3.00;;;;;;;19.78;68.27;100641.91;;;;-57
2021/09/24 11:10:39;;;;;;;7.37;3.41;;;;;;;19.77;68.27;100642.53;;;;-58
2021/09/24 11:13:41;;;;;;;3.33;2.93;;;;;;;19.78;68.25;100641.50;;;;-56
2021/09/24 11:16:42;;;;;;;3.99;2.79;;;;;;;19.76;68.28;100644.41;;;;-56
2021/09/24 11:19:39;;;;;;;4.15;2.86;;;;;;;19.77;68.27;100639.28;;;;-53
2021/09/24 11:22:39;;;;;;;4.43;3.23;;;;;;;19.77;68.20;100634.23;;;;-53
2021/09/24 11:25:39;;;;;;;3.31;2.99;;;;;;;19.77;68.20;100636.44;;;;-55
2021/09/24 11:28:39;;;;;;;3.82;2.93;;;;;;;19.77;68.17;100633.27;;;;-52
2021/09/24 11:31:39;;;;;;;5.95;3.09;;;;;;;19.78;68.22;100627.36;;;;-59
2021/09/24 11:34:39;;;;;;;3.80;2.98;;;;;;;19.79;68.21;100622.95;;;;-58
2021/09/24 11:37:40;;;;;;;3.17;2.87;;;;;;;19.79;68.28;100621.81;;;;-48
2021/09/24 11:40:39;;;;;;;3.37;2.89;;;;;;;19.80;68.29;100619.23;;;;-54
2021/09/24 11:43:56;;;;;;;4.29;3.11;;;;;;;19.80;68.33;100621.84;;;;-52
2021/09/24 11:46:39;;;;;;;4.01;3.19;;;;;;;19.82;68.30;100617.27;;;;-54
2021/09/24 11:49:39;;;;;;;6.03;2.97;;;;;;;19.83;68.32;100619.98;;;;-57
2021/09/24 11:52:39;;;;;;;4.22;3.14;;;;;;;19.84;68.34;100616.67;;;;-53
2021/09/24 11:55:43;;;;;;;4.88;3.07;;;;;;;19.85;68.42;100612.59;;;;-60
2021/09/24 11:58:39;;;;;;;8.44;3.27;;;;;;;19.87;68.31;100611.63;;;;-51
2021/09/24 12:01:39;;;;;;;8.87;3.61;;;;;;;19.86;68.27;100605.92;;;;-52
2021/09/24 12:04:39;;;;;;;5.73;3.27;;;;;;;19.86;68.23;100607.89;;;;-51
2021/09/24 12:07:39;;;;;;;8.78;3.65;;;;;;;19.87;68.25;100605.62;;;;-51
2021/09/24 12:10:39;;;;;;;8.25;3.68;;;;;;;19.86;68.20;100599.20;;;;-52
2021/09/24 12:13:39;;;;;;;6.73;3.39;;;;;;;19.85;68.20;100599.58;;;;-61
2021/09/24 12:16:40;;;;;;;5.94;3.13;;;;;;;19.85;68.20;100602.99;;;;-59
2021/09/24 12:19:39;;;;;;;5.99;3.10;;;;;;;19.84;68.20;100597.88;;;;-61
2021/09/24 12:22:39;;;;;;;5.13;3.20;;;;;;;19.84;68.18;100589.83;;;;-61
2021/09/24 12:25:39;;;;;;;6.25;3.07;;;;;;;19.84;68.19;100590.31;;;;-52
2021/09/24 12:28:39;;;;;;;7.93;3.47;;;;;;;19.84;68.14;100592.34;;;;-61
2021/09/24 12:31:39;;;;;;;5.65;3.12;;;;;;;19.84;68.16;100594.19;;;;-59
2021/09/24 12:34:38;;;;;;;6.09;3.19;;;;;;;19.83;68.17;100590.94;;;;-61
2021/09/24 12:37:39;;;;;;;5.71;3.57;;;;;;;19.84;68.17;100589.96;;;;-51
2021/09/24 12:40:39;;;;;;;5.79;3.11;;;;;;;19.83;68.15;100585.82;;;;-51
2021/09/24 12:43:39;;;;;;;4.70;3.20;;;;;;;19.84;68.14;100587.36;;;;-58
2021/09/24 12:46:39;;;;;;;5.13;2.92;;;;;;;19.83;68.14;100586.39;;;;-57
2021/09/24 12:49:39;;;;;;;4.95;3.23;;;;;;;19.82;68.15;100581.92;;;;-58
2021/09/24 12:52:39;;;;;;;5.56;3.28;;;;;;;19.82;68.15;100574.45;;;;-50
2021/09/24 12:55:39;;;;;;;3.51;2.98;;;;;;;19.82;68.13;100571.84;;;;-60
2021/09/24 12:58:39;;;;;;;4.11;2.99;;;;;;;19.83;68.17;100572.08;;;;-51
2021/09/24 13:01:39;;;;;;;4.30;2.84;;;;;;;19.83;68.15;100569.97;;;;-60
2021/09/24 13:04:39;;;;;;;4.70;2.89;;;;;;;19.82;68.15;100562.81;;;;-58
2021/09/24 13:07:39;;;;;;;3.88;3.03;;;;;;;19.82;68.15;100563.55;;;;-51
2021/09/24 13:10:39;;;;;;;4.17;3.11;;;;;;;19.82;68.13;100557.53;;;;-51
2021/09/24 13:13:39;;;;;;;3.69;2.98;;;;;;;19.82;68.12;100551.83;;;;-50
2021/09/24 13:16:39;;;;;;;4.15;2.98;;;;;;;19.82;68.15;100554.81;;;;-51
2021/09/24 13:19:39;;;;;;;4.68;2.93;;;;;;;19.81;68.12;100557.75;;;;-58
2021/09/24 13:22:39;;;;;;;3.37;2.86;;;;;;;19.81;68.14;100559.62;;;;-60
2021/09/24 13:25:39;;;;;;;4.75;3.12;;;;;;;19.81;68.09;100550.76;;;;-60
2021/09/24 13:28:39;;;;;;;6.49;3.08;;;;;;;19.84;68.23;100549.89;;;;-57
2021/09/24 13:31:39;;;;;;;5.25;3.07;;;;;;;19.85;68.22;100546.80;;;;-56
2021/09/24 13:34:39;;;;;;;3.81;2.89;;;;;;;19.85;68.23;100548.10;;;;-56
2021/09/24 13:37:39;;;;;;;5.58;2.80;;;;;;;19.85;68.19;100542.41;;;;-57
2021/09/24 13:40:39;;;;;;;4.83;2.85;;;;;;;19.85;68.16;100538.09;;;;-57
2021/09/24 13:43:39;;;;;;;5.45;2.92;;;;;;;19.84;68.16;100534.04;;;;-56
2021/09/24 13:46:39;;;;;;;4.16;2.94;;;;;;;19.84;68.17;100535.83;;;;-57
2021/09/24 13:49:39;;;;;;;4.17;2.91;;;;;;;19.84;68.18;100536.29;;;;-58
2021/09/24 13:52:39;;;;;;;4.82;2.91;;;;;;;19.84;68.13;100531.68;;;;-57
2021/09/24 13:55:39;;;;;;;3.52;2.79;;;;;;;19.84;68.12;100531.68;;;;-56
2021/09/24 13:58:38;;;;;;;4.19;2.85;;;;;;;19.83;68.13;100525.55;;;;-58
2021/09/24 14:01:39;;;;;;;3.69;2.87;;;;;;;19.83;68.19;100522.72;;;;-56
2021/09/24 14:04:39;;;;;;;4.39;2.88;;;;;;;19.83;68.18;100519.46;;;;-56
2021/09/24 14:07:39;;;;;;;4.09;2.81;;;;;;;19.83;68.15;100514.58;;;;-56
2021/09/24 14:10:39;;;;;;;3.83;2.80;;;;;;;19.82;68.17;100509.55;;;;-55
2021/09/24 14:13:39;;;;;;;7.33;2.91;;;;;;;19.82;68.14;100506.13;;;;-57
2021/09/24 14:16:39;;;;;;;4.04;2.90;;;;;;;19.83;68.15;100500.75;;;;-56
2021/09/24 14:19:39;;;;;;;4.83;2.91;;;;;;;19.82;68.17;100493.20;;;;-57
2021/09/24 14:22:39;;;;;;;3.09;2.69;;;;;;;19.82;68.13;100493.77;;;;-56
2021/09/24 14:25:39;;;;;;;3.63;2.65;;;;;;;19.81;68.13;100491.95;;;;-56
2021/09/24 14:28:39;;;;;;;4.34;2.83;;;;;;;19.82;68.14;100491.33;;;;-58
2021/09/24 14:31:39;;;;;;;3.87;2.79;;;;;;;19.82;68.15;100488.81;;;;-55
2021/09/24 14:34:40;;;;;;;3.12;2.69;;;;;;;19.82;68.14;100486.67;;;;-56
2021/09/24 14:37:39;;;;;;;4.17;2.90;;;;;;;19.82;68.18;100487.91;;;;-56
2021/09/24 14:40:39;;;;;;;4.21;2.61;;;;;;;19.82;68.12;100485.97;;;;-56
2021/09/24 14:43:39;;;;;;;3.78;2.64;;;;;;;19.82;68.18;100477.23;;;;-56
2021/09/24 14:46:39;;;;;;;4.19;2.79;;;;;;;19.82;68.12;100474.64;;;;-55
2021/09/24 14:49:39;;;;;;;4.33;2.63;;;;;;;19.83;68.19;100476.45;;;;-57
2021/09/24 14:52:39;;;;;;;4.35;3.01;;;;;;;19.83;68.17;100474.81;;;;-53
2021/09/24 14:55:39;;;;;;;4.64;2.68;;;;;;;19.84;68.23;100473.86;;;;-51
2021/09/24 14:58:39;;;;;;;3.48;2.87;;;;;;;19.84;68.25;100473.05;;;;-52
2021/09/24 15:01:39;;;;;;;3.49;2.77;;;;;;;19.86;68.26;100471.41;;;;-59
2021/09/24 15:04:39;;;;;;;3.89;2.97;;;;;;;19.87;68.23;100471.91;;;;-52
2021/09/24 15:07:39;;;;;;;6.61;2.91;;;;;;;19.88;68.29;100470.60;;;;-52
2021/09/24 15:10:39;;;;;;;7.81;2.81;;;;;;;19.87;68.24;100464.27;;;;-52
2021/09/24 15:13:39;;;;;;;5.88;2.66;;;;;;;19.87;68.26;100461.98;;;;-58
2021/09/24 15:16:39;;;;;;;4.01;2.78;;;;;;;19.88;68.22;100459.54;;;;-56
2021/09/24 15:19:39;;;;;;;4.03;2.69;;;;;;;19.87;68.21;100455.64;;;;-56
2021/09/24 15:22:39;;;;;;;4.02;2.83;;;;;;;19.88;68.17;100460.03;;;;-52
2021/09/24 15:25:39;;;;;;;2.91;2.53;;;;;;;19.87;68.16;100454.50;;;;-52
2021/09/24 15:28:39;;;;;;;3.31;2.70;;;;;;;19.87;68.14;100452.39;;;;-58
2021/09/24 15:31:39;;;;;;;5.33;2.65;;;;;;;19.87;68.16;100452.88;;;;-58
2021/09/24 15:34:39;;;;;;;4.45;2.49;;;;;;;19.86;68.16;100449.55;;;;-58
2021/09/24 15:37:39;;;;;;;3.69;2.85;;;;;;;19.86;68.12;100447.76;;;;-52
2021/09/24 15:40:39;;;;;;;4.25;2.67;;;;;;;19.88;68.33;100441.91;;;;-52
2021/09/24 15:43:38;;;;;;;5.21;3.02;;;;;;;19.89;68.31;100444.02;;;;-51
2021/09/24 15:46:38;;;;;;;6.41;3.08;;;;;;;19.91;68.37;100445.17;;;;-50
2021/09/24 15:49:42;;;;;;;9.05;2.95;;;;;;;19.92;68.42;100446.30;;;;-54
2021/09/24 15:52:39;;;;;;;5.03;2.63;;;;;;;19.93;68.65;100443.72;;;;-51
2021/09/24 15:55:38;;;;;;;6.99;2.91;;;;;;;19.96;68.62;100445.02;;;;-51
2021/09/24 15:58:39;;;;;;;7.67;2.85;;;;;;;19.96;68.54;100439.92;;;;-53
2021/09/24 16:01:39;;;;;;;9.80;2.97;;;;;;;19.99;68.63;100439.67;;;;-57
2021/09/24 16:04:39;;;;;;;8.19;2.83;;;;;;;20.00;68.65;100443.89;;;;-55
2021/09/24 16:07:39;;;;;;;6.07;2.85;;;;;;;20.01;68.58;100442.30;;;;-51
2021/09/24 16:10:39;;;;;;;10.23;3.14;;;;;;;20.01;68.56;100444.00;;;;-50
2021/09/24 16:13:39;;;;;;;7.37;2.72;;;;;;;20.01;68.62;100445.86;;;;-60
2021/09/24 16:16:39;;;;;;;5.18;3.02;;;;;;;20.02;68.60;100442.36;;;;-61
2021/09/24 16:19:39;;;;;;;4.94;2.99;;;;;;;20.02;68.65;100443.34;;;;-58
2021/09/24 16:22:39;;;;;;;5.47;2.71;;;;;;;20.03;68.60;100446.77;;;;-57
2021/09/24 16:25:39;;;;;;;8.64;2.73;;;;;;;20.04;68.65;100447.98;;;;-54
2021/09/24 16:28:38;;;;;;;6.17;2.79;;;;;;;20.04;68.67;100447.00;;;;-50
2021/09/24 16:31:39;;;;;;;7.52;2.93;;;;;;;20.04;68.60;100446.76;;;;-56
2021/09/24 16:34:39;;;;;;;5.91;2.67;;;;;;;20.06;68.75;100448.07;;;;-50
2021/09/24 16:37:38;;;;;;;7.59;2.87;;;;;;;20.07;68.65;100447.84;;;;-49
2021/09/24 16:40:39;;;;;;;6.04;2.77;;;;;;;20.07;68.58;100448.01;;;;-51
2021/09/24 16:43:39;;;;;;;4.25;2.75;;;;;;;20.07;68.80;100446.05;;;;-52